Las Vegas, Nevada
Traffic Map
Current Weather Conditions
Las Vegas, Nevada
Few Clouds
Few Clouds
17°
Feels Like: 17°
Wind Chill: 17° Ceiling: Unl
Heat Index: 17° Visibility: 10mi
Dew Point: -11° Wind: 6mph
Humidity: 14% Direction: 160° (SSE)
Pressure: 30.32in Gusts: 0mph
Raw Report DataKLAS 252256Z 16005KT 10SM FEW250 17/M11 A3032 RMK AO2 SLP263 T01671111
Traffic Incident Summary
Active as of:
Severity:
Category:
InformationThere was an issue retrieving the traffic information for this location. Please try a different location or try again shortly.
Advertisements
Track Severe Weather on mobile